sensor_id;sensor_type;location;lat;lon;timestamp;pressure;altitude;pressure_sealevel;temperature;humidity
6218;BME280;3142;48.206;11.550;2023-01-25T00:02:07;97212.63;;;2.24;92.88
6218;BME280;3142;48.206;11.550;2023-01-25T00:04:33;97211.34;;;2.29;92.55
6218;BME280;3142;48.206;11.550;2023-01-25T00:07:00;97209.38;;;2.33;92.36
6218;BME280;3142;48.206;11.550;2023-01-25T00:09:27;97210.31;;;2.32;92.66
6218;BME280;3142;48.206;11.550;2023-01-25T00:11:54;97202.66;;;2.30;92.76
6218;BME280;3142;48.206;11.550;2023-01-25T00:14:22;97210.09;;;2.35;92.64
6218;BME280;3142;48.206;11.550;2023-01-25T00:16:50;97213.81;;;2.31;92.10
6218;BME280;3142;48.206;11.550;2023-01-25T00:19:17;97219.09;;;2.29;92.49
6218;BME280;3142;48.206;11.550;2023-01-25T00:21:44;97207.53;;;2.35;92.10
6218;BME280;3142;48.206;11.550;2023-01-25T00:24:10;97206.06;;;2.31;91.97
6218;BME280;3142;48.206;11.550;2023-01-25T00:26:41;97208.41;;;2.23;91.11
6218;BME280;3142;48.206;11.550;2023-01-25T00:29:10;97212.03;;;2.20;92.44
6218;BME280;3142;48.206;11.550;2023-01-25T00:31:45;97213.56;;;2.23;91.75
6218;BME280;3142;48.206;11.550;2023-01-25T00:34:43;97211.22;;;2.20;92.09
6218;BME280;3142;48.206;11.550;2023-01-25T00:39:53;97214.69;;;2.19;92.10
6218;BME280;3142;48.206;11.550;2023-01-25T00:42:21;97207.34;;;2.25;92.71
6218;BME280;3142;48.206;11.550;2023-01-25T00:44:48;97211.59;;;2.26;92.22
6218;BME280;3142;48.206;11.550;2023-01-25T00:47:15;97207.34;;;2.25;92.35
6218;BME280;3142;48.206;11.550;2023-01-25T00:49:42;97208.78;;;2.29;91.78
6218;BME280;3142;48.206;11.550;2023-01-25T00:52:10;97203.59;;;2.29;92.43
6218;BME280;3142;48.206;11.550;2023-01-25T00:54:36;97200.19;;;2.29;92.10
6218;BME280;3142;48.206;11.550;2023-01-25T00:57:03;97195.38;;;2.24;91.56
6218;BME280;3142;48.206;11.550;2023-01-25T00:59:32;97203.56;;;2.18;91.29
6218;BME280;3142;48.206;11.550;2023-01-25T01:01:59;97204.72;;;2.14;91.55
6218;BME280;3142;48.206;11.550;2023-01-25T01:04:26;97202.47;;;2.10;91.15
6218;BME280;3142;48.206;11.550;2023-01-25T01:06:53;97200.19;;;2.05;92.56
6218;BME280;3142;48.206;11.550;2023-01-25T01:09:21;97204.13;;;2.11;92.53
6218;BME280;3142;48.206;11.550;2023-01-25T01:11:47;97199.06;;;2.09;92.13
6218;BME280;3142;48.206;11.550;2023-01-25T01:14:14;97197.75;;;2.03;92.27
6218;BME280;3142;48.206;11.550;2023-01-25T01:16:42;97202.69;;;2.06;92.60
6218;BME280;3142;48.206;11.550;2023-01-25T01:19:08;97200.00;;;2.08;93.12
6218;BME280;3142;48.206;11.550;2023-01-25T01:21:35;97198.03;;;2.12;92.86
6218;BME280;3142;48.206;11.550;2023-01-25T01:24:01;97197.53;;;2.06;92.67
6218;BME280;3142;48.206;11.550;2023-01-25T01:26:28;97194.44;;;2.01;92.77
6218;BME280;3142;48.206;11.550;2023-01-25T01:28:54;97191.38;;;1.96;92.46
6218;BME280;3142;48.206;11.550;2023-01-25T01:31:22;97189.16;;;2.03;93.28
6218;BME280;3142;48.206;11.550;2023-01-25T01:33:52;97185.78;;;2.02;92.75
6218;BME280;3142;48.206;11.550;2023-01-25T01:36:20;97190.34;;;1.99;92.43
6218;BME280;3142;48.206;11.550;2023-01-25T01:38:46;97187.53;;;2.02;93.09
6218;BME280;3142;48.206;11.550;2023-01-25T01:41:14;97183.59;;;2.09;92.72
6218;BME280;3142;48.206;11.550;2023-01-25T01:43:41;97189.56;;;2.10;92.88
6218;BME280;3142;48.206;11.550;2023-01-25T01:46:12;97190.41;;;2.10;92.75
6218;BME280;3142;48.206;11.550;2023-01-25T01:48:43;97187.22;;;2.06;92.45
6218;BME280;3142;48.206;11.550;2023-01-25T01:51:16;97182.75;;;2.08;92.57
6218;BME280;3142;48.206;11.550;2023-01-25T01:53:47;97187.34;;;2.16;93.03
6218;BME280;3142;48.206;11.550;2023-01-25T01:56:20;97191.44;;;2.07;91.37
6218;BME280;3142;48.206;11.550;2023-01-25T01:58:49;97190.22;;;2.00;91.96
6218;BME280;3142;48.206;11.550;2023-01-25T02:01:17;97192.53;;;1.92;92.29
6218;BME280;3142;48.206;11.550;2023-01-25T02:03:44;97189.97;;;1.92;92.45
6218;BME280;3142;48.206;11.550;2023-01-25T02:06:14;97189.44;;;1.87;92.63
6218;BME280;3142;48.206;11.550;2023-01-25T02:08:42;97187.78;;;1.86;91.98
6218;BME280;3142;48.206;11.550;2023-01-25T02:11:11;97187.44;;;1.80;91.95
6218;BME280;3142;48.206;11.550;2023-01-25T02:13:37;97187.50;;;1.78;92.42
6218;BME280;3142;48.206;11.550;2023-01-25T02:16:04;97183.19;;;1.78;92.76
6218;BME280;3142;48.206;11.550;2023-01-25T02:18:32;97182.88;;;1.83;93.17
6218;BME280;3142;48.206;11.550;2023-01-25T02:20:59;97183.81;;;1.82;93.13
6218;BME280;3142;48.206;11.550;2023-01-25T02:23:32;97178.41;;;1.85;93.33
6218;BME280;3142;48.206;11.550;2023-01-25T02:26:03;97185.72;;;1.91;92.71
6218;BME280;3142;48.206;11.550;2023-01-25T02:28:34;97185.34;;;1.85;92.37
6218;BME280;3142;48.206;11.550;2023-01-25T02:31:02;97185.22;;;1.86;92.71
6218;BME280;3142;48.206;11.550;2023-01-25T02:33:28;97181.81;;;1.86;92.90
6218;BME280;3142;48.206;11.550;2023-01-25T02:35:59;97179.25;;;1.86;92.91
6218;BME280;3142;48.206;11.550;2023-01-25T02:38:28;97183.03;;;1.93;92.72
6218;BME280;3142;48.206;11.550;2023-01-25T02:40:59;97187.19;;;1.83;92.39
6218;BME280;3142;48.206;11.550;2023-01-25T02:43:30;97181.53;;;1.77;92.58
6218;BME280;3142;48.206;11.550;2023-01-25T02:46:01;97178.22;;;1.75;92.54
6218;BME280;3142;48.206;11.550;2023-01-25T02:48:29;97171.19;;;1.77;92.51
6218;BME280;3142;48.206;11.550;2023-01-25T02:50:55;97166.88;;;1.78;92.92
6218;BME280;3142;48.206;11.550;2023-01-25T02:53:21;97167.88;;;1.88;92.81
6218;BME280;3142;48.206;11.550;2023-01-25T02:55:48;97166.63;;;1.94;92.50
6218;BME280;3142;48.206;11.550;2023-01-25T02:58:14;97162.78;;;1.99;92.09
6218;BME280;3142;48.206;11.550;2023-01-25T03:00:42;97176.59;;;1.98;92.26
6218;BME280;3142;48.206;11.550;2023-01-25T03:03:08;97164.97;;;1.93;92.55
6218;BME280;3142;48.206;11.550;2023-01-25T03:05:35;97170.84;;;1.95;92.83
6218;BME280;3142;48.206;11.550;2023-01-25T03:08:01;97159.72;;;2.05;92.37
6218;BME280;3142;48.206;11.550;2023-01-25T03:10:27;97161.72;;;2.02;92.49
6218;BME280;3142;48.206;11.550;2023-01-25T03:12:54;97153.03;;;2.03;92.37
6218;BME280;3142;48.206;11.550;2023-01-25T03:15:20;97152.44;;;1.99;91.81
6218;BME280;3142;48.206;11.550;2023-01-25T03:17:48;97145.66;;;1.98;91.93
6218;BME280;3142;48.206;11.550;2023-01-25T03:20:15;97146.94;;;2.04;92.17
6218;BME280;3142;48.206;11.550;2023-01-25T03:22:41;97152.00;;;2.05;91.80
6218;BME280;3142;48.206;11.550;2023-01-25T03:25:08;97159.03;;;2.03;91.80
6218;BME280;3142;48.206;11.550;2023-01-25T03:27:34;97150.81;;;1.98;91.58
6218;BME280;3142;48.206;11.550;2023-01-25T03:30:01;97144.81;;;1.98;92.01
6218;BME280;3142;48.206;11.550;2023-01-25T03:32:27;97150.47;;;2.03;91.71
6218;BME280;3142;48.206;11.550;2023-01-25T03:34:55;97148.69;;;2.03;91.84
6218;BME280;3142;48.206;11.550;2023-01-25T03:37:23;97146.75;;;2.07;91.39
6218;BME280;3142;48.206;11.550;2023-01-25T03:39:54;97150.97;;;2.08;92.19
6218;BME280;3142;48.206;11.550;2023-01-25T03:42:20;97149.31;;;2.07;92.11
6218;BME280;3142;48.206;11.550;2023-01-25T03:44:47;97143.22;;;2.08;91.69
6218;BME280;3142;48.206;11.550;2023-01-25T03:47:13;97140.13;;;2.03;90.87
6218;BME280;3142;48.206;11.550;2023-01-25T03:49:40;97135.53;;;1.95;91.55
6218;BME280;3142;48.206;11.550;2023-01-25T03:52:08;97139.59;;;2.11;92.31
6218;BME280;3142;48.206;11.550;2023-01-25T03:54:34;97141.34;;;2.10;90.98
6218;BME280;3142;48.206;11.550;2023-01-25T03:57:01;97144.88;;;2.09;90.97
6218;BME280;3142;48.206;11.550;2023-01-25T03:59:27;97136.97;;;1.99;91.28
6218;BME280;3142;48.206;11.550;2023-01-25T04:01:53;97142.72;;;2.03;92.06
6218;BME280;3142;48.206;11.550;2023-01-25T04:04:20;97139.00;;;2.07;91.84
6218;BME280;3142;48.206;11.550;2023-01-25T04:06:46;97143.53;;;2.03;91.79
6218;BME280;3142;48.206;11.550;2023-01-25T04:09:14;97143.34;;;2.06;91.76
6218;BME280;3142;48.206;11.550;2023-01-25T04:11:40;97141.91;;;2.02;91.57
6218;BME280;3142;48.206;11.550;2023-01-25T04:14:08;97135.91;;;2.02;91.56
6218;BME280;3142;48.206;11.550;2023-01-25T04:16:35;97134.28;;;2.01;91.75
6218;BME280;3142;48.206;11.550;2023-01-25T04:19:01;97135.59;;;2.06;91.95
6218;BME280;3142;48.206;11.550;2023-01-25T04:21:27;97130.22;;;2.10;91.66
6218;BME280;3142;48.206;11.550;2023-01-25T04:23:54;97130.81;;;2.13;91.64
6218;BME280;3142;48.206;11.550;2023-01-25T04:26:21;97130.56;;;2.16;90.88
6218;BME280;3142;48.206;11.550;2023-01-25T04:28:48;97131.84;;;2.11;91.36
6218;BME280;3142;48.206;11.550;2023-01-25T04:31:14;97127.88;;;2.18;90.75
6218;BME280;3142;48.206;11.550;2023-01-25T04:33:41;97135.03;;;2.14;90.95
6218;BME280;3142;48.206;11.550;2023-01-25T04:36:07;97132.28;;;2.04;90.40
6218;BME280;3142;48.206;11.550;2023-01-25T04:38:34;97122.03;;;1.92;90.26
6218;BME280;3142;48.206;11.550;2023-01-25T04:41:00;97114.16;;;1.82;90.75
6218;BME280;3142;48.206;11.550;2023-01-25T04:43:29;97116.59;;;1.84;91.00
6218;BME280;3142;48.206;11.550;2023-01-25T04:45:56;97110.03;;;1.80;91.03
6218;BME280;3142;48.206;11.550;2023-01-25T04:48:22;97110.97;;;1.78;91.24
6218;BME280;3142;48.206;11.550;2023-01-25T04:50:48;97109.69;;;1.84;91.79
6218;BME280;3142;48.206;11.550;2023-01-25T04:53:15;97107.34;;;1.81;90.91
6218;BME280;3142;48.206;11.550;2023-01-25T04:55:44;97102.38;;;1.78;90.91
6218;BME280;3142;48.206;11.550;2023-01-25T04:58:11;97097.56;;;1.73;91.17
6218;BME280;3142;48.206;11.550;2023-01-25T05:00:39;97105.53;;;1.70;91.05
6218;BME280;3142;48.206;11.550;2023-01-25T05:03:05;97100.78;;;1.64;91.57
6218;BME280;3142;48.206;11.550;2023-01-25T05:05:31;97095.63;;;1.64;91.70
6218;BME280;3142;48.206;11.550;2023-01-25T05:07:58;97102.13;;;1.70;91.44
6218;BME280;3142;48.206;11.550;2023-01-25T05:10:24;97104.00;;;1.68;91.34
6218;BME280;3142;48.206;11.550;2023-01-25T05:12:50;97091.63;;;1.60;91.70
6218;BME280;3142;48.206;11.550;2023-01-25T05:15:17;97100.19;;;1.61;90.94
6218;BME280;3142;48.206;11.550;2023-01-25T05:17:45;97094.88;;;1.51;91.56
6218;BME280;3142;48.206;11.550;2023-01-25T05:20:11;97093.22;;;1.50;91.77
6218;BME280;3142;48.206;11.550;2023-01-25T05:22:38;97089.09;;;1.47;91.59
6218;BME280;3142;48.206;11.550;2023-01-25T05:25:05;97083.84;;;1.49;91.67
6218;BME280;3142;48.206;11.550;2023-01-25T05:27:51;97079.50;;;1.49;91.61
6218;BME280;3142;48.206;11.550;2023-01-25T05:30:17;97083.84;;;1.49;91.97
6218;BME280;3142;48.206;11.550;2023-01-25T05:32:44;97087.47;;;1.46;92.21
6218;BME280;3142;48.206;11.550;2023-01-25T05:35:11;97095.63;;;1.40;92.16
6218;BME280;3142;48.206;11.550;2023-01-25T05:37:37;97096.34;;;1.42;92.18
6218;BME280;3142;48.206;11.550;2023-01-25T05:40:05;97102.94;;;1.46;93.03
6218;BME280;3142;48.206;11.550;2023-01-25T05:42:31;97094.25;;;1.47;92.24
6218;BME280;3142;48.206;11.550;2023-01-25T05:44:57;97090.38;;;1.42;92.57
6218;BME280;3142;48.206;11.550;2023-01-25T05:47:24;97094.72;;;1.41;92.11
6218;BME280;3142;48.206;11.550;2023-01-25T05:49:52;97093.28;;;1.37;93.21
6218;BME280;3142;48.206;11.550;2023-01-25T05:52:18;97097.28;;;1.41;92.65
6218;BME280;3142;48.206;11.550;2023-01-25T05:54:44;97092.34;;;1.38;92.59
6218;BME280;3142;48.206;11.550;2023-01-25T05:57:12;97086.56;;;1.35;92.07
6218;BME280;3142;48.206;11.550;2023-01-25T05:59:38;97088.22;;;1.36;92.22
6218;BME280;3142;48.206;11.550;2023-01-25T06:02:05;97094.31;;;1.35;91.83
6218;BME280;3142;48.206;11.550;2023-01-25T06:04:31;97087.84;;;1.29;91.81
6218;BME280;3142;48.206;11.550;2023-01-25T06:06:59;97081.84;;;1.29;91.58
6218;BME280;3142;48.206;11.550;2023-01-25T06:09:25;97078.56;;;1.27;92.10
6218;BME280;3142;48.206;11.550;2023-01-25T06:11:52;97081.75;;;1.30;91.34
6218;BME280;3142;48.206;11.550;2023-01-25T06:14:18;97080.50;;;1.23;91.33
6218;BME280;3142;48.206;11.550;2023-01-25T06:16:45;97082.91;;;1.26;91.66
6218;BME280;3142;48.206;11.550;2023-01-25T06:19:12;97081.03;;;1.28;90.91
6218;BME280;3142;48.206;11.550;2023-01-25T06:21:38;97077.13;;;1.23;91.00
6218;BME280;3142;48.206;11.550;2023-01-25T06:24:06;97077.94;;;1.23;91.23
6218;BME280;3142;48.206;11.550;2023-01-25T06:26:33;97080.31;;;1.26;92.43
6218;BME280;3142;48.206;11.550;2023-01-25T06:28:59;97069.78;;;1.29;91.76
6218;BME280;3142;48.206;11.550;2023-01-25T06:31:26;97064.53;;;1.31;91.46
6218;BME280;3142;48.206;11.550;2023-01-25T06:33:52;97062.66;;;1.33;91.92
6218;BME280;3142;48.206;11.550;2023-01-25T06:36:20;97057.63;;;1.31;92.04
6218;BME280;3142;48.206;11.550;2023-01-25T06:38:47;97061.63;;;1.35;92.06
6218;BME280;3142;48.206;11.550;2023-01-25T06:41:16;97050.16;;;1.39;91.88
6218;BME280;3142;48.206;11.550;2023-01-25T06:43:43;97052.41;;;1.44;91.44
6218;BME280;3142;48.206;11.550;2023-01-25T06:46:09;97056.63;;;1.45;91.50
6218;BME280;3142;48.206;11.550;2023-01-25T06:48:37;97062.94;;;1.41;91.50
6218;BME280;3142;48.206;11.550;2023-01-25T06:51:05;97053.34;;;1.43;90.73
6218;BME280;3142;48.206;11.550;2023-01-25T06:53:34;97049.25;;;1.40;90.77
6218;BME280;3142;48.206;11.550;2023-01-25T06:56:03;97036.88;;;1.33;90.51
6218;BME280;3142;48.206;11.550;2023-01-25T06:58:31;97040.28;;;1.33;90.58
6218;BME280;3142;48.206;11.550;2023-01-25T07:00:59;97032.25;;;1.38;91.16
6218;BME280;3142;48.206;11.550;2023-01-25T07:03:27;97030.56;;;1.37;91.12
6218;BME280;3142;48.206;11.550;2023-01-25T07:05:56;97032.25;;;1.38;91.22
6218;BME280;3142;48.206;11.550;2023-01-25T07:08:23;97033.13;;;1.37;91.27
6218;BME280;3142;48.206;11.550;2023-01-25T07:10:52;97039.28;;;1.47;91.73
6218;BME280;3142;48.206;11.550;2023-01-25T07:13:19;97037.31;;;1.51;90.87
6218;BME280;3142;48.206;11.550;2023-01-25T07:15:52;97037.13;;;1.54;90.77
6218;BME280;3142;48.206;11.550;2023-01-25T07:18:19;97030.69;;;1.59;91.60
6218;BME280;3142;48.206;11.550;2023-01-25T07:20:45;97031.28;;;1.63;91.59
6218;BME280;3142;48.206;11.550;2023-01-25T07:23:12;97030.44;;;1.62;91.24
6218;BME280;3142;48.206;11.550;2023-01-25T07:25:42;97032.78;;;1.54;91.05
6218;BME280;3142;48.206;11.550;2023-01-25T07:28:08;97039.69;;;1.54;91.27
6218;BME280;3142;48.206;11.550;2023-01-25T07:30:35;97035.91;;;1.46;91.21
6218;BME280;3142;48.206;11.550;2023-01-25T07:33:03;97026.41;;;1.47;90.80
6218;BME280;3142;48.206;11.550;2023-01-25T07:35:30;97033.81;;;1.52;91.35
6218;BME280;3142;48.206;11.550;2023-01-25T07:37:56;97029.56;;;1.51;91.33
6218;BME280;3142;48.206;11.550;2023-01-25T07:40:23;97031.34;;;1.50;91.38
6218;BME280;3142;48.206;11.550;2023-01-25T07:42:49;97031.66;;;1.45;91.58
6218;BME280;3142;48.206;11.550;2023-01-25T07:45:16;97037.53;;;1.47;91.42
6218;BME280;3142;48.206;11.550;2023-01-25T07:47:43;97036.13;;;1.43;91.62
6218;BME280;3142;48.206;11.550;2023-01-25T07:50:11;97035.59;;;1.51;91.76
6218;BME280;3142;48.206;11.550;2023-01-25T07:52:38;97039.28;;;1.47;90.29
6218;BME280;3142;48.206;11.550;2023-01-25T07:55:06;97041.63;;;1.39;90.67
6218;BME280;3142;48.206;11.550;2023-01-25T07:57:32;97039.22;;;1.36;90.78
6218;BME280;3142;48.206;11.550;2023-01-25T07:59:59;97036.28;;;1.29;90.92
6218;BME280;3142;48.206;11.550;2023-01-25T08:02:26;97042.38;;;1.28;90.83
6218;BME280;3142;48.206;11.550;2023-01-25T08:04:52;97046.72;;;1.28;91.33
6218;BME280;3142;48.206;11.550;2023-01-25T08:07:20;97040.28;;;1.33;91.35
6218;BME280;3142;48.206;11.550;2023-01-25T08:09:47;97033.81;;;1.28;90.78
6218;BME280;3142;48.206;11.550;2023-01-25T08:12:14;97033.72;;;1.29;91.31
6218;BME280;3142;48.206;11.550;2023-01-25T08:14:41;97038.75;;;1.31;91.23
6218;BME280;3142;48.206;11.550;2023-01-25T08:17:08;97038.75;;;1.31;92.00
6218;BME280;3142;48.206;11.550;2023-01-25T08:19:34;97041.91;;;1.34;91.84
6218;BME280;3142;48.206;11.550;2023-01-25T08:22:01;97036.00;;;1.45;91.97
6218;BME280;3142;48.206;11.550;2023-01-25T08:24:28;97029.31;;;1.42;90.88
6218;BME280;3142;48.206;11.550;2023-01-25T08:26:55;97035.84;;;1.35;91.67
6218;BME280;3142;48.206;11.550;2023-01-25T08:29:21;97026.78;;;1.30;91.45
6218;BME280;3142;48.206;11.550;2023-01-25T08:31:48;97024.00;;;1.33;91.85
6218;BME280;3142;48.206;11.550;2023-01-25T08:34:14;97033.13;;;1.37;91.82
6218;BME280;3142;48.206;11.550;2023-01-25T08:36:41;97030.97;;;1.43;91.78
6218;BME280;3142;48.206;11.550;2023-01-25T08:39:09;97026.50;;;1.45;92.04
6218;BME280;3142;48.206;11.550;2023-01-25T08:41:38;97024.75;;;1.46;91.78
6218;BME280;3142;48.206;11.550;2023-01-25T08:44:04;97026.41;;;1.47;92.00
6218;BME280;3142;48.206;11.550;2023-01-25T08:46:32;97027.09;;;1.49;92.18
6218;BME280;3142;48.206;11.550;2023-01-25T08:49:00;97021.25;;;1.47;91.76
6218;BME280;3142;48.206;11.550;2023-01-25T08:51:29;97026.81;;;1.54;92.31
6218;BME280;3142;48.206;11.550;2023-01-25T08:53:56;97021.41;;;1.57;92.23
6218;BME280;3142;48.206;11.550;2023-01-25T08:56:22;97026.56;;;1.57;91.39
6218;BME280;3142;48.206;11.550;2023-01-25T08:58:50;97030.50;;;1.49;91.47
6218;BME280;3142;48.206;11.550;2023-01-25T09:01:18;97013.63;;;1.45;91.27
6218;BME280;3142;48.206;11.550;2023-01-25T09:03:46;97019.94;;;1.41;90.67
6218;BME280;3142;48.206;11.550;2023-01-25T09:06:13;97010.78;;;1.37;91.03
6218;BME280;3142;48.206;11.550;2023-01-25T09:08:40;97012.97;;;1.31;90.32
6218;BME280;3142;48.206;11.550;2023-01-25T09:11:08;97004.06;;;1.24;90.62
6218;BME280;3142;48.206;11.550;2023-01-25T09:13:35;96996.41;;;1.22;90.32
6218;BME280;3142;48.206;11.550;2023-01-25T09:16:05;97001.66;;;1.21;90.58
6218;BME280;3142;48.206;11.550;2023-01-25T09:18:32;97000.63;;;1.23;90.74
6218;BME280;3142;48.206;11.550;2023-01-25T09:21:04;97007.03;;;1.17;90.42
6218;BME280;3142;48.206;11.550;2023-01-25T09:23:31;97005.06;;;1.21;90.67
6218;BME280;3142;48.206;11.550;2023-01-25T09:25:58;97006.00;;;1.20;90.83
6218;BME280;3142;48.206;11.550;2023-01-25T09:28:25;97003.13;;;1.25;90.88
6218;BME280;3142;48.206;11.550;2023-01-25T09:30:54;97006.19;;;1.30;90.46
6218;BME280;3142;48.206;11.550;2023-01-25T09:33:24;97000.38;;;1.39;90.62
6218;BME280;3142;48.206;11.550;2023-01-25T09:35:51;97005.41;;;1.40;90.15
6218;BME280;3142;48.206;11.550;2023-01-25T09:38:18;97005.72;;;1.36;89.94
6218;BME280;3142;48.206;11.550;2023-01-25T09:40:56;97000.31;;;1.28;89.79
6218;BME280;3142;48.206;11.550;2023-01-25T09:43:37;97004.53;;;1.29;90.04
6218;BME280;3142;48.206;11.550;2023-01-25T09:46:11;96998.97;;;1.22;89.51
6218;BME280;3142;48.206;11.550;2023-01-25T09:48:51;97000.63;;;1.23;89.82
6218;BME280;3142;48.206;11.550;2023-01-25T09:51:25;96999.50;;;1.27;90.14
6218;BME280;3142;48.206;11.550;2023-01-25T09:53:55;96996.84;;;1.40;90.07
6218;BME280;3142;48.206;11.550;2023-01-25T09:56:25;96992.53;;;1.40;90.02
6218;BME280;3142;48.206;11.550;2023-01-25T09:58:54;96994.16;;;1.41;90.10
6218;BME280;3142;48.206;11.550;2023-01-25T10:01:40;96991.06;;;1.36;89.20
6218;BME280;3142;48.206;11.550;2023-01-25T10:04:14;96981.69;;;1.35;90.38
6218;BME280;3142;48.206;11.550;2023-01-25T10:06:43;96987.25;;;1.42;89.22
6218;BME280;3142;48.206;11.550;2023-01-25T10:09:17;96979.00;;;1.37;90.33
6218;BME280;3142;48.206;11.550;2023-01-25T10:11:44;96977.31;;;1.48;90.26
6218;BME280;3142;48.206;11.550;2023-01-25T10:14:13;96980.09;;;1.45;90.27
6218;BME280;3142;48.206;11.550;2023-01-25T10:16:54;96971.31;;;1.48;90.73
6218;BME280;3142;48.206;11.550;2023-01-25T10:19:34;96974.72;;;1.48;90.42
6218;BME280;3142;48.206;11.550;2023-01-25T10:22:09;96980.03;;;1.58;91.17
6218;BME280;3142;48.206;11.550;2023-01-25T10:24:52;96971.00;;;1.64;90.72
6218;BME280;3142;48.206;11.550;2023-01-25T10:27:28;96967.63;;;1.63;90.06
6218;BME280;3142;48.206;11.550;2023-01-25T10:30:01;96967.63;;;1.63;90.09
6218;BME280;3142;48.206;11.550;2023-01-25T10:32:31;96957.56;;;1.71;90.54
6218;BME280;3142;48.206;11.550;2023-01-25T10:35:11;96952.06;;;1.65;89.36
6218;BME280;3142;48.206;11.550;2023-01-25T10:37:40;96948.28;;;1.58;89.63
6218;BME280;3142;48.206;11.550;2023-01-25T10:40:13;96947.06;;;1.51;90.04
6218;BME280;3142;48.206;11.550;2023-01-25T10:42:45;96944.50;;;1.51;90.10
6218;BME280;3142;48.206;11.550;2023-01-25T10:45:15;96939.25;;;1.52;90.59
6218;BME280;3142;48.206;11.550;2023-01-25T10:47:44;96939.94;;;1.54;90.50
6218;BME280;3142;48.206;11.550;2023-01-25T10:50:44;96942.66;;;1.53;89.70
6218;BME280;3142;48.206;11.550;2023-01-25T10:53:26;96936.88;;;1.49;89.61
6218;BME280;3142;48.206;11.550;2023-01-25T10:56:13;96926.91;;;1.44;89.64
6218;BME280;3142;48.206;11.550;2023-01-25T10:58:44;96934.81;;;1.30;89.71
6218;BME280;3142;48.206;11.550;2023-01-25T11:01:13;96925.44;;;1.29;90.05
6218;BME280;3142;48.206;11.550;2023-01-25T11:03:50;96919.00;;;1.35;90.84
6218;BME280;3142;48.206;11.550;2023-01-25T11:06:28;96910.50;;;1.45;89.69
6218;BME280;3142;48.206;11.550;2023-01-25T11:08:55;96908.59;;;1.36;89.57
6218;BME280;3142;48.206;11.550;2023-01-25T11:11:24;96908.13;;;1.31;89.69
6218;BME280;3142;48.206;11.550;2023-01-25T11:13:51;96895.22;;;1.31;90.24
6218;BME280;3142;48.206;11.550;2023-01-25T11:16:26;96902.72;;;1.34;89.93
6218;BME280;3142;48.206;11.550;2023-01-25T11:18:55;96896.75;;;1.34;89.68
6218;BME280;3142;48.206;11.550;2023-01-25T11:21:27;96894.41;;;1.31;90.85
6218;BME280;3142;48.206;11.550;2023-01-25T11:24:15;96893.63;;;1.41;90.77
6218;BME280;3142;48.206;11.550;2023-01-25T11:26:42;96884.38;;;1.39;90.10
6218;BME280;3142;48.206;11.550;2023-01-25T11:29:15;96885.03;;;1.30;90.42
6218;BME280;3142;48.206;11.550;2023-01-25T11:31:43;96878.25;;;1.29;90.75
6218;BME280;3142;48.206;11.550;2023-01-25T11:34:13;96877.88;;;1.33;91.26
6218;BME280;3142;48.206;11.550;2023-01-25T11:36:50;96867.84;;;1.41;91.50
6218;BME280;3142;48.206;11.550;2023-01-25T11:39:28;96860.72;;;1.56;91.05
6218;BME280;3142;48.206;11.550;2023-01-25T11:42:08;96853.00;;;1.67;91.09
6218;BME280;3142;48.206;11.550;2023-01-25T11:45:01;96843.97;;;1.73;90.92
6218;BME280;3142;48.206;11.550;2023-01-25T11:47:42;96846.53;;;1.62;90.45
6218;BME280;3142;48.206;11.550;2023-01-25T11:50:19;96843.50;;;1.57;90.86
6218;BME280;3142;48.206;11.550;2023-01-25T11:53:01;96836.69;;;1.56;91.57
6218;BME280;3142;48.206;11.550;2023-01-25T11:55:33;96831.66;;;1.65;91.47
6218;BME280;3142;48.206;11.550;2023-01-25T11:58:28;96828.28;;;1.65;91.13
6218;BME280;3142;48.206;11.550;2023-01-25T12:01:07;96820.03;;;1.60;90.33
6218;BME280;3142;48.206;11.550;2023-01-25T12:06:40;96810.44;;;1.62;90.78
6218;BME280;3142;48.206;11.550;2023-01-25T12:09:24;96813.84;;;1.51;90.59
6218;BME280;3142;48.206;11.550;2023-01-25T12:12:03;96797.91;;;1.57;91.62
6218;BME280;3142;48.206;11.550;2023-01-25T12:14:41;96793.91;;;1.75;90.95
6218;BME280;3142;48.206;11.550;2023-01-25T12:17:23;96780.88;;;1.77;90.85
6218;BME280;3142;48.206;11.550;2023-01-25T12:20:08;96782.50;;;1.78;91.24
6218;BME280;3142;48.206;11.550;2023-01-25T12:22:52;96774.31;;;1.73;91.08
6218;BME280;3142;48.206;11.550;2023-01-25T12:25:29;96779.34;;;1.74;90.88
6218;BME280;3142;48.206;11.550;2023-01-25T12:28:07;96774.78;;;1.78;91.44
6218;BME280;3142;48.206;11.550;2023-01-25T12:30:47;96771.38;;;1.77;90.33
6218;BME280;3142;48.206;11.550;2023-01-25T12:33:19;96767.06;;;1.67;90.64
6218;BME280;3142;48.206;11.550;2023-01-25T12:35:52;96766.00;;;1.69;91.35
6218;BME280;3142;48.206;11.550;2023-01-25T12:38:25;96762.38;;;1.83;90.71
6218;BME280;3142;48.206;11.550;2023-01-25T12:40:58;96754.50;;;1.85;90.21
6218;BME280;3142;48.206;11.550;2023-01-25T12:43:29;96750.41;;;1.82;90.35
6218;BME280;3142;48.206;11.550;2023-01-25T12:45:58;96753.09;;;1.81;90.30
6218;BME280;3142;48.206;11.550;2023-01-25T12:48:30;96747.72;;;1.72;89.74
6218;BME280;3142;48.206;11.550;2023-01-25T12:50:59;96746.53;;;1.76;90.66
6218;BME280;3142;48.206;11.550;2023-01-25T12:53:28;96740.41;;;1.89;89.96
6218;BME280;3142;48.206;11.550;2023-01-25T12:55:59;96732.34;;;1.82;89.14
6218;BME280;3142;48.206;11.550;2023-01-25T12:58:33;96735.72;;;1.94;90.23
6218;BME280;3142;48.206;11.550;2023-01-25T13:01:10;96743.13;;;1.87;89.08
6218;BME280;3142;48.206;11.550;2023-01-25T13:03:46;96735.63;;;1.84;88.96
6218;BME280;3142;48.206;11.550;2023-01-25T13:06:19;96728.47;;;1.88;89.60
6218;BME280;3142;48.206;11.550;2023-01-25T13:08:54;96729.38;;;1.98;89.54
6218;BME280;3142;48.206;11.550;2023-01-25T13:11:29;96723.28;;;1.99;89.01
6218;BME280;3142;48.206;11.550;2023-01-25T13:14:27;96722.84;;;1.94;88.83
6218;BME280;3142;48.206;11.550;2023-01-25T13:16:54;96721.41;;;1.90;89.49
6218;BME280;3142;48.206;11.550;2023-01-25T13:19:39;96722.22;;;1.90;88.93
6218;BME280;3142;48.206;11.550;2023-01-25T13:22:10;96722.63;;;1.74;88.94
6218;BME280;3142;48.206;11.550;2023-01-25T13:25:05;96725.56;;;1.70;89.49
6218;BME280;3142;48.206;11.550;2023-01-25T13:27:33;96707.63;;;1.68;89.14
6218;BME280;3142;48.206;11.550;2023-01-25T13:30:02;96711.59;;;1.72;89.30
6218;BME280;3142;48.206;11.550;2023-01-25T13:33:03;96712.66;;;1.70;89.29
6218;BME280;3142;48.206;11.550;2023-01-25T13:35:41;96717.38;;;1.65;90.12
6218;BME280;3142;48.206;11.550;2023-01-25T13:38:28;96714.69;;;1.66;89.93
6218;BME280;3142;48.206;11.550;2023-01-25T13:41:14;96708.22;;;1.72;90.32
6218;BME280;3142;48.206;11.550;2023-01-25T13:43:46;96703.88;;;1.72;89.41